sensor_id;sensor_type;location;lat;lon;timestamp;pressure;altitude;pressure_sealevel;temperature;humidity
83308;BME280;73223;48.584;13.460;2023-12-14T00:01:24;95607.59;;;5.32;100.00
83308;BME280;73223;48.584;13.460;2023-12-14T00:03:49;95617.28;;;5.78;100.00
83308;BME280;73223;48.584;13.460;2023-12-14T00:06:14;95620.56;;;5.83;100.00
83308;BME280;73223;48.584;13.460;2023-12-14T00:08:40;95622.50;;;5.75;100.00
83308;BME280;73223;48.584;13.460;2023-12-14T00:11:10;95621.19;;;5.64;100.00
83308;BME280;73223;48.584;13.460;2023-12-14T00:13:36;95623.56;;;5.70;100.00
83308;BME280;73223;48.584;13.460;2023-12-14T00:16:02;95627.28;;;5.32;100.00
83308;BME280;73223;48.584;13.460;2023-12-14T00:18:27;95633.00;;;5.12;100.00
83308;BME280;73223;48.584;13.460;2023-12-14T00:20:53;95633.69;;;5.74;100.00
83308;BME280;73223;48.584;13.460;2023-12-14T00:23:19;95632.19;;;5.95;100.00
83308;BME280;73223;48.584;13.460;2023-12-14T00:25:44;95630.84;;;5.83;100.00
83308;BME280;73223;48.584;13.460;2023-12-14T00:28:10;95629.19;;;5.81;100.00
83308;BME280;73223;48.584;13.460;2023-12-14T00:30:35;95635.31;;;5.77;100.00
83308;BME280;73223;48.584;13.460;2023-12-14T00:33:00;95643.69;;;5.83;100.00
83308;BME280;73223;48.584;13.460;2023-12-14T00:35:26;95637.97;;;5.74;100.00
83308;BME280;73223;48.584;13.460;2023-12-14T00:37:51;95647.06;;;5.85;100.00
83308;BME280;73223;48.584;13.460;2023-12-14T00:40:16;95644.69;;;5.79;100.00
83308;BME280;73223;48.584;13.460;2023-12-14T00:42:41;95651.59;;;5.77;100.00
83308;BME280;73223;48.584;13.460;2023-12-14T00:45:07;95653.75;;;5.63;100.00
83308;BME280;73223;48.584;13.460;2023-12-14T00:47:33;95666.72;;;5.31;100.00
83308;BME280;73223;48.584;13.460;2023-12-14T00:49:58;95660.94;;;5.80;100.00
83308;BME280;73223;48.584;13.460;2023-12-14T00:52:23;95670.03;;;5.91;100.00
83308;BME280;73223;48.584;13.460;2023-12-14T00:54:48;95668.78;;;6.05;100.00
83308;BME280;73223;48.584;13.460;2023-12-14T00:57:14;95674.41;;;5.89;100.00
83308;BME280;73223;48.584;13.460;2023-12-14T00:59:39;95684.84;;;5.83;100.00
83308;BME280;73223;48.584;13.460;2023-12-14T01:02:05;95687.59;;;5.49;100.00
83308;BME280;73223;48.584;13.460;2023-12-14T01:04:30;95695.72;;;5.64;100.00
83308;BME280;73223;48.584;13.460;2023-12-14T01:06:56;95700.31;;;5.54;100.00
83308;BME280;73223;48.584;13.460;2023-12-14T01:09:21;95708.84;;;5.25;100.00
83308;BME280;73223;48.584;13.460;2023-12-14T01:11:46;95705.97;;;5.36;100.00
83308;BME280;73223;48.584;13.460;2023-12-14T01:14:12;95716.94;;;5.41;100.00
83308;BME280;73223;48.584;13.460;2023-12-14T01:16:37;95706.56;;;5.73;100.00
83308;BME280;73223;48.584;13.460;2023-12-14T01:19:03;95706.50;;;5.75;100.00
83308;BME280;73223;48.584;13.460;2023-12-14T01:21:30;95712.63;;;6.00;100.00
83308;BME280;73223;48.584;13.460;2023-12-14T01:23:56;95705.63;;;6.05;100.00
83308;BME280;73223;48.584;13.460;2023-12-14T01:26:21;95712.09;;;5.90;100.00
83308;BME280;73223;48.584;13.460;2023-12-14T01:28:46;95711.69;;;5.73;100.00
83308;BME280;73223;48.584;13.460;2023-12-14T01:31:12;95717.50;;;5.80;100.00
83308;BME280;73223;48.584;13.460;2023-12-14T01:33:37;95711.97;;;5.93;100.00
83308;BME280;73223;48.584;13.460;2023-12-14T01:36:02;95714.72;;;5.89;100.00
83308;BME280;73223;48.584;13.460;2023-12-14T01:38:28;95718.63;;;6.01;100.00
83308;BME280;73223;48.584;13.460;2023-12-14T01:40:53;95720.84;;;6.11;100.00
83308;BME280;73223;48.584;13.460;2023-12-14T01:43:21;95719.28;;;6.07;100.00
83308;BME280;73223;48.584;13.460;2023-12-14T01:45:46;95721.38;;;5.95;100.00
83308;BME280;73223;48.584;13.460;2023-12-14T01:48:12;95721.81;;;6.09;100.00
83308;BME280;73223;48.584;13.460;2023-12-14T01:50:37;95723.22;;;5.91;100.00
83308;BME280;73223;48.584;13.460;2023-12-14T01:53:03;95732.41;;;5.98;100.00
83308;BME280;73223;48.584;13.460;2023-12-14T01:55:28;95739.19;;;6.01;100.00
83308;BME280;73223;48.584;13.460;2023-12-14T01:57:53;95741.56;;;6.08;100.00
83308;BME280;73223;48.584;13.460;2023-12-14T02:00:36;95739.28;;;5.98;100.00
83308;BME280;73223;48.584;13.460;2023-12-14T02:03:04;95745.56;;;5.87;100.00
83308;BME280;73223;48.584;13.460;2023-12-14T02:05:29;95745.94;;;6.05;100.00
83308;BME280;73223;48.584;13.460;2023-12-14T02:07:55;95753.34;;;5.86;100.00
83308;BME280;73223;48.584;13.460;2023-12-14T02:10:20;95760.69;;;5.69;100.00
83308;BME280;73223;48.584;13.460;2023-12-14T02:12:45;95758.09;;;6.00;100.00
83308;BME280;73223;48.584;13.460;2023-12-14T02:15:11;95754.34;;;6.10;100.00
83308;BME280;73223;48.584;13.460;2023-12-14T02:17:36;95763.41;;;5.64;100.00
83308;BME280;73223;48.584;13.460;2023-12-14T02:20:02;95757.88;;;5.76;100.00
83308;BME280;73223;48.584;13.460;2023-12-14T02:22:27;95765.66;;;5.45;100.00
83308;BME280;73223;48.584;13.460;2023-12-14T02:24:52;95772.44;;;5.77;100.00
83308;BME280;73223;48.584;13.460;2023-12-14T02:27:17;95773.69;;;5.64;100.00
83308;BME280;73223;48.584;13.460;2023-12-14T02:29:43;95772.94;;;5.30;100.00
83308;BME280;73223;48.584;13.460;2023-12-14T02:32:08;95777.56;;;5.77;100.00
83308;BME280;73223;48.584;13.460;2023-12-14T02:34:33;95779.53;;;5.69;100.00
83308;BME280;73223;48.584;13.460;2023-12-14T02:36:58;95778.63;;;5.72;100.00
83308;BME280;73223;48.584;13.460;2023-12-14T02:39:24;95781.53;;;5.29;100.00
83308;BME280;73223;48.584;13.460;2023-12-14T02:41:49;95785.97;;;5.22;100.00
83308;BME280;73223;48.584;13.460;2023-12-14T02:44:14;95783.91;;;5.36;100.00
83308;BME280;73223;48.584;13.460;2023-12-14T02:46:39;95787.25;;;5.38;100.00
83308;BME280;73223;48.584;13.460;2023-12-14T02:49:05;95789.25;;;5.29;100.00
83308;BME280;73223;48.584;13.460;2023-12-14T02:51:30;95788.94;;;5.39;100.00
83308;BME280;73223;48.584;13.460;2023-12-14T02:53:55;95784.78;;;5.35;100.00
83308;BME280;73223;48.584;13.460;2023-12-14T02:56:22;95793.47;;;5.31;100.00
83308;BME280;73223;48.584;13.460;2023-12-14T02:58:47;95787.44;;;5.32;100.00
83308;BME280;73223;48.584;13.460;2023-12-14T03:01:18;95781.75;;;5.81;100.00
83308;BME280;73223;48.584;13.460;2023-12-14T03:03:44;95788.25;;;5.95;100.00
83308;BME280;73223;48.584;13.460;2023-12-14T03:06:09;95789.13;;;5.93;100.00
83308;BME280;73223;48.584;13.460;2023-12-14T03:08:34;95790.44;;;5.77;100.00
83308;BME280;73223;48.584;13.460;2023-12-14T03:11:00;95798.34;;;6.01;100.00
83308;BME280;73223;48.584;13.460;2023-12-14T03:13:25;95801.56;;;5.78;100.00
83308;BME280;73223;48.584;13.460;2023-12-14T03:15:50;95805.16;;;5.72;100.00
83308;BME280;73223;48.584;13.460;2023-12-14T03:18:16;95811.69;;;5.84;100.00
83308;BME280;73223;48.584;13.460;2023-12-14T03:20:41;95813.53;;;5.79;100.00
83308;BME280;73223;48.584;13.460;2023-12-14T03:23:06;95811.38;;;5.95;100.00
83308;BME280;73223;48.584;13.460;2023-12-14T03:25:32;95814.16;;;5.88;100.00
83308;BME280;73223;48.584;13.460;2023-12-14T03:27:57;95816.31;;;6.02;100.00
83308;BME280;73223;48.584;13.460;2023-12-14T03:30:22;95823.06;;;6.06;100.00
83308;BME280;73223;48.584;13.460;2023-12-14T03:32:47;95816.41;;;5.99;100.00
83308;BME280;73223;48.584;13.460;2023-12-14T03:35:13;95829.59;;;5.88;100.00
83308;BME280;73223;48.584;13.460;2023-12-14T03:37:38;95828.16;;;5.46;100.00
83308;BME280;73223;48.584;13.460;2023-12-14T03:40:03;95832.50;;;5.44;100.00
83308;BME280;73223;48.584;13.460;2023-12-14T03:42:29;95844.69;;;5.37;100.00
83308;BME280;73223;48.584;13.460;2023-12-14T03:44:54;95839.59;;;5.36;100.00
83308;BME280;73223;48.584;13.460;2023-12-14T03:47:19;95848.41;;;5.56;100.00
83308;BME280;73223;48.584;13.460;2023-12-14T03:49:45;95850.59;;;5.72;100.00
83308;BME280;73223;48.584;13.460;2023-12-14T03:52:10;95848.59;;;5.50;100.00
83308;BME280;73223;48.584;13.460;2023-12-14T03:54:35;95849.00;;;5.68;100.00
83308;BME280;73223;48.584;13.460;2023-12-14T03:57:01;95863.03;;;5.22;100.00
83308;BME280;73223;48.584;13.460;2023-12-14T03:59:26;95863.03;;;5.22;100.00
83308;BME280;73223;48.584;13.460;2023-12-14T04:01:51;95872.91;;;5.05;100.00
83308;BME280;73223;48.584;13.460;2023-12-14T04:04:16;95871.13;;;5.41;100.00
83308;BME280;73223;48.584;13.460;2023-12-14T04:06:42;95871.22;;;5.04;100.00
83308;BME280;73223;48.584;13.460;2023-12-14T04:09:07;95879.72;;;5.40;100.00
83308;BME280;73223;48.584;13.460;2023-12-14T04:11:32;95882.72;;;5.23;100.00
83308;BME280;73223;48.584;13.460;2023-12-14T04:13:58;95881.72;;;5.29;100.00
83308;BME280;73223;48.584;13.460;2023-12-14T04:16:23;95884.44;;;5.22;100.00
83308;BME280;73223;48.584;13.460;2023-12-14T04:18:48;95891.13;;;5.30;100.00
83308;BME280;73223;48.584;13.460;2023-12-14T04:21:14;95899.00;;;4.88;100.00
83308;BME280;73223;48.584;13.460;2023-12-14T04:23:39;95904.69;;;4.65;100.00
83308;BME280;73223;48.584;13.460;2023-12-14T04:26:04;95909.06;;;4.97;100.00
83308;BME280;73223;48.584;13.460;2023-12-14T04:28:30;95909.00;;;5.00;100.00
83308;BME280;73223;48.584;13.460;2023-12-14T04:30:55;95921.38;;;4.83;100.00
83308;BME280;73223;48.584;13.460;2023-12-14T04:33:20;95922.78;;;4.59;100.00
83308;BME280;73223;48.584;13.460;2023-12-14T04:35:46;95929.09;;;4.83;100.00
83308;BME280;73223;48.584;13.460;2023-12-14T04:38:11;95931.03;;;5.09;100.00
83308;BME280;73223;48.584;13.460;2023-12-14T04:40:36;95929.97;;;5.17;100.00
83308;BME280;73223;48.584;13.460;2023-12-14T04:43:01;95935.50;;;5.01;100.00
83308;BME280;73223;48.584;13.460;2023-12-14T04:45:27;95931.72;;;5.49;100.00
83308;BME280;73223;48.584;13.460;2023-12-14T04:47:52;95937.09;;;5.40;100.00
83308;BME280;73223;48.584;13.460;2023-12-14T04:50:18;95942.25;;;5.39;100.00
83308;BME280;73223;48.584;13.460;2023-12-14T04:52:43;95940.31;;;5.48;100.00
83308;BME280;73223;48.584;13.460;2023-12-14T04:55:08;95945.66;;;5.41;100.00
83308;BME280;73223;48.584;13.460;2023-12-14T04:57:34;95947.84;;;5.20;100.00
83308;BME280;73223;48.584;13.460;2023-12-14T04:59:59;95958.00;;;5.27;100.00
83308;BME280;73223;48.584;13.460;2023-12-14T05:02:25;95960.53;;;4.91;100.00
83308;BME280;73223;48.584;13.460;2023-12-14T05:04:50;95960.94;;;5.11;100.00
83308;BME280;73223;48.584;13.460;2023-12-14T05:07:15;95954.53;;;5.28;100.00
83308;BME280;73223;48.584;13.460;2023-12-14T05:09:40;95968.47;;;5.19;100.00
83308;BME280;73223;48.584;13.460;2023-12-14T05:12:06;95965.66;;;5.28;100.00
83308;BME280;73223;48.584;13.460;2023-12-14T05:14:31;95976.38;;;5.10;100.00
83308;BME280;73223;48.584;13.460;2023-12-14T05:16:56;95984.75;;;5.18;100.00
83308;BME280;73223;48.584;13.460;2023-12-14T05:19:22;95987.78;;;5.35;100.00
83308;BME280;73223;48.584;13.460;2023-12-14T05:21:47;95983.56;;;5.33;100.00
83308;BME280;73223;48.584;13.460;2023-12-14T05:24:12;95997.09;;;5.38;100.00
83308;BME280;73223;48.584;13.460;2023-12-14T05:26:38;95996.72;;;5.19;100.00
83308;BME280;73223;48.584;13.460;2023-12-14T05:29:03;95993.56;;;5.43;100.00
83308;BME280;73223;48.584;13.460;2023-12-14T05:31:28;96004.81;;;5.38;100.00
83308;BME280;73223;48.584;13.460;2023-12-14T05:33:53;96003.50;;;5.57;100.00
83308;BME280;73223;48.584;13.460;2023-12-14T05:36:19;96009.38;;;5.62;100.00
83308;BME280;73223;48.584;13.460;2023-12-14T05:38:44;96012.91;;;5.58;100.00
83308;BME280;73223;48.584;13.460;2023-12-14T05:41:09;96018.84;;;5.60;100.00
83308;BME280;73223;48.584;13.460;2023-12-14T05:43:35;96019.88;;;5.54;100.00
83308;BME280;73223;48.584;13.460;2023-12-14T05:46:01;96025.00;;;5.54;100.00
83308;BME280;73223;48.584;13.460;2023-12-14T05:48:27;96033.19;;;5.70;100.00
83308;BME280;73223;48.584;13.460;2023-12-14T05:50:53;96041.69;;;5.72;100.00
83308;BME280;73223;48.584;13.460;2023-12-14T05:53:18;96043.16;;;5.47;100.00
83308;BME280;73223;48.584;13.460;2023-12-14T05:55:44;96047.84;;;5.67;100.00
83308;BME280;73223;48.584;13.460;2023-12-14T05:58:09;96053.16;;;5.59;100.00
83308;BME280;73223;48.584;13.460;2023-12-14T06:00:35;96050.38;;;5.31;100.00
83308;BME280;73223;48.584;13.460;2023-12-14T06:03:01;96051.69;;;5.49;100.00
83308;BME280;73223;48.584;13.460;2023-12-14T06:05:26;96066.00;;;5.59;100.00
83308;BME280;73223;48.584;13.460;2023-12-14T06:07:51;96064.13;;;5.66;100.00
83308;BME280;73223;48.584;13.460;2023-12-14T06:10:17;96071.56;;;5.76;100.00
83308;BME280;73223;48.584;13.460;2023-12-14T06:12:42;96081.16;;;5.71;100.00
83308;BME280;73223;48.584;13.460;2023-12-14T06:15:07;96083.56;;;5.77;100.00
83308;BME280;73223;48.584;13.460;2023-12-14T06:17:33;96087.16;;;5.70;100.00
83308;BME280;73223;48.584;13.460;2023-12-14T06:19:59;96096.06;;;5.92;100.00
83308;BME280;73223;48.584;13.460;2023-12-14T06:22:24;96088.63;;;5.80;100.00
83308;BME280;73223;48.584;13.460;2023-12-14T06:24:49;96107.19;;;5.56;100.00
83308;BME280;73223;48.584;13.460;2023-12-14T06:27:15;96109.09;;;5.48;100.00
83308;BME280;73223;48.584;13.460;2023-12-14T06:29:40;96114.78;;;5.23;100.00
83308;BME280;73223;48.584;13.460;2023-12-14T06:32:06;96125.56;;;5.39;100.00
83308;BME280;73223;48.584;13.460;2023-12-14T06:34:31;96119.75;;;5.70;100.00
83308;BME280;73223;48.584;13.460;2023-12-14T06:36:56;96123.25;;;5.66;100.00
83308;BME280;73223;48.584;13.460;2023-12-14T06:39:23;96133.31;;;5.38;100.00
83308;BME280;73223;48.584;13.460;2023-12-14T06:41:52;96137.16;;;5.18;100.00
83308;BME280;73223;48.584;13.460;2023-12-14T06:44:17;96144.53;;;4.94;100.00
83308;BME280;73223;48.584;13.460;2023-12-14T06:46:42;96146.41;;;5.27;100.00
83308;BME280;73223;48.584;13.460;2023-12-14T06:49:08;96149.38;;;5.07;100.00
83308;BME280;73223;48.584;13.460;2023-12-14T06:51:33;96154.34;;;5.16;100.00
83308;BME280;73223;48.584;13.460;2023-12-14T06:53:58;96152.69;;;5.14;100.00
83308;BME280;73223;48.584;13.460;2023-12-14T06:56:23;96160.44;;;5.11;100.00
83308;BME280;73223;48.584;13.460;2023-12-14T06:58:49;96164.78;;;5.07;100.00
83308;BME280;73223;48.584;13.460;2023-12-14T07:01:15;96167.22;;;5.15;100.00
83308;BME280;73223;48.584;13.460;2023-12-14T07:03:41;96173.53;;;5.39;100.00
83308;BME280;73223;48.584;13.460;2023-12-14T07:06:07;96183.59;;;5.51;100.00
83308;BME280;73223;48.584;13.460;2023-12-14T07:08:33;96183.53;;;5.54;100.00
83308;BME280;73223;48.584;13.460;2023-12-14T07:10:58;96186.03;;;5.55;100.00
83308;BME280;73223;48.584;13.460;2023-12-14T07:13:23;96195.28;;;5.64;100.00
83308;BME280;73223;48.584;13.460;2023-12-14T07:15:49;96199.63;;;5.61;100.00
83308;BME280;73223;48.584;13.460;2023-12-14T07:18:14;96203.75;;;5.28;100.00
83308;BME280;73223;48.584;13.460;2023-12-14T07:20:39;96205.78;;;5.55;100.00
83308;BME280;73223;48.584;13.460;2023-12-14T07:23:04;96208.63;;;5.40;100.00
83308;BME280;73223;48.584;13.460;2023-12-14T07:25:30;96218.84;;;5.44;100.00
83308;BME280;73223;48.584;13.460;2023-12-14T07:27:55;96214.41;;;5.52;100.00
83308;BME280;73223;48.584;13.460;2023-12-14T07:30:20;96219.28;;;5.63;100.00
83308;BME280;73223;48.584;13.460;2023-12-14T07:32:45;96221.81;;;5.66;100.00
83308;BME280;73223;48.584;13.460;2023-12-14T07:35:11;96239.25;;;5.52;100.00
83308;BME280;73223;48.584;13.460;2023-12-14T07:37:36;96235.09;;;5.45;100.00
83308;BME280;73223;48.584;13.460;2023-12-14T07:40:01;96242.69;;;5.51;100.00
83308;BME280;73223;48.584;13.460;2023-12-14T07:42:28;96241.28;;;5.76;100.00
83308;BME280;73223;48.584;13.460;2023-12-14T07:44:53;96254.34;;;6.09;100.00
83308;BME280;73223;48.584;13.460;2023-12-14T07:47:19;96251.06;;;6.01;100.00
83308;BME280;73223;48.584;13.460;2023-12-14T07:49:44;96254.78;;;6.26;100.00
83308;BME280;73223;48.584;13.460;2023-12-14T07:52:10;96255.78;;;5.80;100.00
83308;BME280;73223;48.584;13.460;2023-12-14T07:54:36;96259.16;;;5.82;100.00
83308;BME280;73223;48.584;13.460;2023-12-14T07:57:01;96256.25;;;6.36;100.00
83308;BME280;73223;48.584;13.460;2023-12-14T07:59:27;96265.06;;;5.87;100.00
83308;BME280;73223;48.584;13.460;2023-12-14T08:01:54;96267.75;;;5.81;100.00
83308;BME280;73223;48.584;13.460;2023-12-14T08:04:20;96274.88;;;5.69;100.00
83308;BME280;73223;48.584;13.460;2023-12-14T08:06:45;96286.03;;;5.24;100.00
83308;BME280;73223;48.584;13.460;2023-12-14T08:09:10;96287.63;;;5.32;100.00
83308;BME280;73223;48.584;13.460;2023-12-14T08:11:35;96292.78;;;5.30;100.00
83308;BME280;73223;48.584;13.460;2023-12-14T08:14:01;96294.78;;;5.16;100.00
83308;BME280;73223;48.584;13.460;2023-12-14T08:16:26;96300.41;;;5.36;100.00
83308;BME280;73223;48.584;13.460;2023-12-14T08:18:52;96311.59;;;5.32;100.00
83308;BME280;73223;48.584;13.460;2023-12-14T08:21:17;96327.34;;;5.15;100.00
83308;BME280;73223;48.584;13.460;2023-12-14T08:23:43;96321.91;;;5.31;100.00
83308;BME280;73223;48.584;13.460;2023-12-14T08:26:09;96324.97;;;5.03;100.00
83308;BME280;73223;48.584;13.460;2023-12-14T08:28:36;96330.38;;;5.36;100.00
83308;BME280;73223;48.584;13.460;2023-12-14T08:31:02;96336.31;;;5.38;100.00
83308;BME280;73223;48.584;13.460;2023-12-14T08:33:28;96336.94;;;5.50;100.00
83308;BME280;73223;48.584;13.460;2023-12-14T08:35:55;96347.16;;;5.55;100.00
83308;BME280;73223;48.584;13.460;2023-12-14T08:38:20;96350.50;;;5.58;100.00
83308;BME280;73223;48.584;13.460;2023-12-14T08:40:46;96354.34;;;5.81;100.00
83308;BME280;73223;48.584;13.460;2023-12-14T08:43:11;96351.97;;;5.72;100.00
83308;BME280;73223;48.584;13.460;2023-12-14T08:45:37;96358.03;;;5.68;100.00
83308;BME280;73223;48.584;13.460;2023-12-14T08:48:02;96359.59;;;5.75;100.00
83308;BME280;73223;48.584;13.460;2023-12-14T08:50:27;96371.56;;;5.76;100.00
83308;BME280;73223;48.584;13.460;2023-12-14T08:52:52;96376.16;;;5.60;100.00
83308;BME280;73223;48.584;13.460;2023-12-14T08:55:18;96376.41;;;5.48;100.00
83308;BME280;73223;48.584;13.460;2023-12-14T08:57:43;96383.63;;;5.28;100.00
83308;BME280;73223;48.584;13.460;2023-12-14T09:00:09;96395.91;;;5.58;100.00
83308;BME280;73223;48.584;13.460;2023-12-14T09:02:35;96398.69;;;5.47;100.00
83308;BME280;73223;48.584;13.460;2023-12-14T09:05:00;96400.34;;;5.51;100.00
83308;BME280;73223;48.584;13.460;2023-12-14T09:07:26;96403.41;;;5.72;100.00
83308;BME280;73223;48.584;13.460;2023-12-14T09:09:51;96411.69;;;5.86;100.00
83308;BME280;73223;48.584;13.460;2023-12-14T09:12:16;96416.81;;;5.89;100.00
83308;BME280;73223;48.584;13.460;2023-12-14T09:14:41;96416.63;;;5.50;100.00
83308;BME280;73223;48.584;13.460;2023-12-14T09:17:07;96428.13;;;5.30;100.00
83308;BME280;73223;48.584;13.460;2023-12-14T09:19:32;96433.19;;;5.82;100.00
83308;BME280;73223;48.584;13.460;2023-12-14T09:21:57;96432.41;;;5.77;100.00
83308;BME280;73223;48.584;13.460;2023-12-14T09:24:23;96432.91;;;5.99;100.00
83308;BME280;73223;48.584;13.460;2023-12-14T09:26:48;96437.19;;;5.98;100.00
83308;BME280;73223;48.584;13.460;2023-12-14T09:29:14;96425.31;;;6.34;100.00
83308;BME280;73223;48.584;13.460;2023-12-14T09:31:44;96431.88;;;6.47;100.00
83308;BME280;73223;48.584;13.460;2023-12-14T09:34:10;96425.31;;;6.74;100.00
83308;BME280;73223;48.584;13.460;2023-12-14T09:36:36;96429.03;;;6.21;100.00
83308;BME280;73223;48.584;13.460;2023-12-14T09:39:01;96432.38;;;6.65;100.00
83308;BME280;73223;48.584;13.460;2023-12-14T09:41:26;96428.53;;;7.19;100.00
83308;BME280;73223;48.584;13.460;2023-12-14T09:43:52;96436.75;;;6.63;100.00
83308;BME280;73223;48.584;13.460;2023-12-14T09:46:17;96432.75;;;6.86;100.00
83308;BME280;73223;48.584;13.460;2023-12-14T09:48:44;96440.66;;;6.79;100.00
83308;BME280;73223;48.584;13.460;2023-12-14T09:51:11;96443.91;;;6.87;100.00
83308;BME280;73223;48.584;13.460;2023-12-14T09:53:37;96444.22;;;6.73;100.00
83308;BME280;73223;48.584;13.460;2023-12-14T09:56:02;96450.28;;;6.71;100.00
83308;BME280;73223;48.584;13.460;2023-12-14T09:58:31;96458.03;;;6.69;100.00
83308;BME280;73223;48.584;13.460;2023-12-14T10:00:57;96461.03;;;6.88;100.00
83308;BME280;73223;48.584;13.460;2023-12-14T10:03:26;96454.66;;;6.66;100.00
83308;BME280;73223;48.584;13.460;2023-12-14T10:05:54;96456.34;;;6.68;100.00
83308;BME280;73223;48.584;13.460;2023-12-14T10:08:20;96463.91;;;6.36;100.00
83308;BME280;73223;48.584;13.460;2023-12-14T10:10:47;96458.69;;;6.79;100.00
83308;BME280;73223;48.584;13.460;2023-12-14T10:13:17;96463.72;;;6.83;100.00
83308;BME280;73223;48.584;13.460;2023-12-14T10:15:45;96463.91;;;6.34;100.00
83308;BME280;73223;48.584;13.460;2023-12-14T10:18:10;96463.44;;;6.97;100.00
83308;BME280;73223;48.584;13.460;2023-12-14T10:20:36;96466.38;;;6.80;100.00
83308;BME280;73223;48.584;13.460;2023-12-14T10:23:06;96468.78;;;6.06;100.00
83308;BME280;73223;48.584;13.460;2023-12-14T10:25:32;96474.34;;;7.07;100.00
83308;BME280;73223;48.584;13.460;2023-12-14T10:27:57;96469.44;;;6.57;100.00
83308;BME280;73223;48.584;13.460;2023-12-14T10:30:23;96483.09;;;7.00;100.00
83308;BME280;73223;48.584;13.460;2023-12-14T10:32:48;96471.28;;;6.51;100.00
83308;BME280;73223;48.584;13.460;2023-12-14T10:35:17;96484.84;;;6.60;100.00
83308;BME280;73223;48.584;13.460;2023-12-14T10:37:44;96480.66;;;6.95;100.00
83308;BME280;73223;48.584;13.460;2023-12-14T10:40:13;96479.34;;;6.76;100.00
83308;BME280;73223;48.584;13.460;2023-12-14T10:42:42;96485.50;;;6.69;100.00
83308;BME280;73223;48.584;13.460;2023-12-14T10:45:11;96488.94;;;6.69;100.00
83308;BME280;73223;48.584;13.460;2023-12-14T10:47:39;96489.22;;;6.95;100.00
83308;BME280;73223;48.584;13.460;2023-12-14T10:50:06;96499.72;;;6.86;100.00
83308;BME280;73223;48.584;13.460;2023-12-14T10:52:32;96498.41;;;7.07;100.00
83308;BME280;73223;48.584;13.460;2023-12-14T10:55:06;96498.72;;;6.93;100.00
83308;BME280;73223;48.584;13.460;2023-12-14T10:57:34;96504.41;;;6.68;100.00
83308;BME280;73223;48.584;13.460;2023-12-14T11:00:00;96507.13;;;6.61;100.00
83308;BME280;73223;48.584;13.460;2023-12-14T11:02:25;96514.88;;;7.00;100.00
83308;BME280;73223;48.584;13.460;2023-12-14T11:04:59;96504.28;;;6.75;100.00
83308;BME280;73223;48.584;13.460;2023-12-14T11:07:52;96516.06;;;6.85;100.00
83308;BME280;73223;48.584;13.460;2023-12-14T11:10:36;96525.09;;;6.21;100.00
83308;BME280;73223;48.584;13.460;2023-12-14T11:13:03;96515.53;;;6.70;100.00
83308;BME280;73223;48.584;13.460;2023-12-14T11:15:33;96522.00;;;6.47;100.00
83308;BME280;73223;48.584;13.460;2023-12-14T11:23:36;96538.31;;;6.89;100.00
83308;BME280;73223;48.584;13.460;2023-12-14T11:26:02;96547.13;;;5.88;100.00
83308;BME280;73223;48.584;13.460;2023-12-14T11:28:29;96547.00;;;6.42;100.00
83308;BME280;73223;48.584;13.460;2023-12-14T11:30:55;96535.97;;;6.79;100.00
83308;BME280;73223;48.584;13.460;2023-12-14T11:33:21;96546.97;;;6.44;100.00
83308;BME280;73223;48.584;13.460;2023-12-14T11:35:46;96547.97;;;6.80;100.00
83308;BME280;73223;48.584;13.460;2023-12-14T11:38:12;96559.22;;;6.30;100.00
83308;BME280;73223;48.584;13.460;2023-12-14T11:40:41;96556.06;;;7.02;100.00
83308;BME280;73223;48.584;13.460;2023-12-14T11:43:07;96557.13;;;6.93;100.00
83308;BME280;73223;48.584;13.460;2023-12-14T11:45:34;96555.72;;;7.17;100.00
83308;BME280;73223;48.584;13.460;2023-12-14T11:47:59;96556.25;;;7.32;100.00
83308;BME280;73223;48.584;13.460;2023-12-14T11:50:26;96555.50;;;7.27;100.00
83308;BME280;73223;48.584;13.460;2023-12-14T11:52:52;96551.03;;;6.97;100.00
83308;BME280;73223;48.584;13.460;2023-12-14T11:55:19;96555.44;;;7.30;100.00
83308;BME280;73223;48.584;13.460;2023-12-14T11:57:46;96556.44;;;6.83;100.00
83308;BME280;73223;48.584;13.460;2023-12-14T12:00:12;96568.81;;;6.68;100.00
83308;BME280;73223;48.584;13.460;2023-12-14T12:02:38;96574.56;;;6.80;100.00
83308;BME280;73223;48.584;13.460;2023-12-14T12:05:06;96568.22;;;6.96;100.00
83308;BME280;73223;48.584;13.460;2023-12-14T12:07:31;96566.41;;;7.00;100.00
83308;BME280;73223;48.584;13.460;2023-12-14T12:09:56;96572.03;;;6.79;100.00
83308;BME280;73223;48.584;13.460;2023-12-14T12:12:21;96562.34;;;6.90;100.00
83308;BME280;73223;48.584;13.460;2023-12-14T12:14:47;96568.25;;;6.95;100.00
83308;BME280;73223;48.584;13.460;2023-12-14T12:17:14;96561.78;;;7.16;100.00
83308;BME280;73223;48.584;13.460;2023-12-14T12:19:40;96562.22;;;6.96;100.00
83308;BME280;73223;48.584;13.460;2023-12-14T12:22:08;96568.88;;;6.63;100.00
83308;BME280;73223;48.584;13.460;2023-12-14T12:24:33;96566.25;;;6.66;100.00
83308;BME280;73223;48.584;13.460;2023-12-14T12:26:59;96579.03;;;6.71;100.00
83308;BME280;73223;48.584;13.460;2023-12-14T12:29:24;96577.69;;;6.96;100.00
83308;BME280;73223;48.584;13.460;2023-12-14T12:31:50;96582.78;;;6.56;100.00
83308;BME280;73223;48.584;13.460;2023-12-14T12:34:16;96583.91;;;6.43;100.00
83308;BME280;73223;48.584;13.460;2023-12-14T12:36:42;96581.75;;;6.63;100.00
83308;BME280;73223;48.584;13.460;2023-12-14T12:39:07;96592.69;;;6.76;100.00
83308;BME280;73223;48.584;13.460;2023-12-14T12:41:33;96591.97;;;6.23;100.00
83308;BME280;73223;48.584;13.460;2023-12-14T12:43:59;96586.25;;;6.53;100.00
83308;BME280;73223;48.584;13.460;2023-12-14T12:46:30;96588.53;;;6.69;100.00
83308;BME280;73223;48.584;13.460;2023-12-14T12:48:56;96592.72;;;7.16;100.00